Main page
METAR-TAF:

METAR-TAF

Airports :

Šiauliai International Airport

Šiauliai, Lithuania

latitude: 55-53-38N, longitude: 023-23-42E, elevation: 135 m

Current weather observation

The report was made 21 minutes ago, at 11:20 UTC
Wind 8 kt from the Southwest
Temperature 4°C
Humidity 87%
Pressure 1027 hPa
Visibility 10 km or more
Overcast at a height of 1000 ft

METAR: EYSA 191120Z 22008KT 9999 OVC010 04/02 Q1027 R14L/0///95 R14R/0///95 GRN NOSIG

Time: 13:41 (11:41 UTC)

Forecast

The report was made 37 minutes ago, at 11:04 UTC
Forecast valid from 19 at 12 UTC to 19 at 21 UTC
Wind 10 kt from the South/Southwest
Visibility: 8000 m
Scattered clouds at a height of 1000 ft
Broken clouds at a height of 1500 ft
Temporary
from 19 at 12 UTC to 19 at 16 UTC
Visibility: 5000 m
Broken clouds at a height of 500 ft
mist
Becoming
from 19 at 16 UTC to 19 at 18 UTC
Overcast at a height of 1000 ft

TAF: EYSA 191104Z 1912/1921 21010KT 8000 SCT010 BKN015 TEMPO 1912/1916 5000 BR BKN005 BECMG 1916/1918 OVC010

Weather observations and forecasts of more than 4000 airports (METAR and TAF reports).

The available stations are represented by yellow and red dots on the map.

Hover mouse over dot to see the name of the station.

Then click to see weather observations and forecasts.

To change the map : click on the green buttons with a black cross to zoom in, on the green button with a dash to zoom out, or on the green arrows for adjacent maps.


METAR-TAF: